Tropical Cyclones
[Index]
Main Index Home Page Stock Weather Photos Extreme Storms Discussion Storm News and Storm Chasing Reports Tropical Cyclones / Hurricanes / Typhoons Weather Data and Links Wild Fires / Bushfires Weather Observation Techniques Weather Picture Catalogue Tornado Pictures and Reports Stock Video Footage and DVDs for sale
Season 2007-2008 Tropical Cyclone OPHELIA Track Map
Season 2007-2008 Summaries (Operational Data): [AU] [SIO] [SPAC] [SH]
<<- Previous TC | 2007-2008 Season | Next TC ->>

click for intensity scale information  Lat/long Grid: Show Hide

 Date Labels: Show Hide

Operational Tropical Cyclone Data : JTWC Advisories | BoM Warnings

Name: OPHELIA
Number: 0821

27 Feb 2008 06:00 UTC to 07 Mar 2008 06:00 UTC

    date/time    lat    long     hPa   cat  kts
2008-02-27 06   15.1   130.1    1001         25          
2008-02-27 12   15.2   129.5    1003         25          
2008-02-27 18   15.3   129.2    1002         25          
2008-02-28 00   15.2   129.1    1003         25          
2008-02-28 06   14.9   128.9    1000         25          
2008-02-28 12   15.1   128.4    1002         25          
2008-02-28 18   15.1   127.8    1001         25          
2008-02-29 00   14.7   127.5    1002         25          
2008-02-29 06   14.6   126.5    1000         25          
2008-02-29 12   15.1   126.4    1000         20          
2008-02-29 18   15.3   125.8     998         25          
2008-03-01 00   15.0   124.2     998         25          
2008-03-01 06   15.5   123.6     994         30          
2008-03-01 12   15.8   122.6     988    1    40          
2008-03-01 18   16.0   122.1     982    2    50          
2008-03-02 00   16.2   121.4     980    2    50          
2008-03-02 06   16.5   120.7     976    2    55          
2008-03-02 12   16.6   120.0     976    2    55          
2008-03-02 18   16.8   119.2     972    2    60          
2008-03-03 00   16.7   118.5     974    2    55          
2008-03-03 06   16.5   117.4     982    2    50          
2008-03-03 12   16.8   116.5     980    2    50          
2008-03-03 18   17.0   115.6     982    2    50          
2008-03-04 00   17.2   114.6     982    2    50          
2008-03-04 06   17.2   113.6     982    2    50          
2008-03-04 12   17.7   112.8     974    2    55          
2008-03-04 18   18.2   112.2     974    2    55          
2008-03-05 00   19.0   111.2     982    2    50          
2008-03-05 06   19.7   110.5     982    2    50          
2008-03-05 12   20.3   109.7     982    2    50          
2008-03-05 18   21.0   109.1     990    1    40          
2008-03-06 00   22.0   109.1     992    1    40          
2008-03-06 06   23.2   109.0     992    1    40          
2008-03-06 12   24.2   109.0     992    1    35          
2008-03-06 18   24.8   109.5     995    1    35          
2008-03-07 00   25.1   110.4    1000         30          
2008-03-07 06   25.1   111.7                 20          
Winds are 10-min average.

Tropical cyclone tracks developed by Michael Bath using operational warnings and advisories and Google Maps.


[Australian Severe Weather index] [Copyright Notice] [Email Contacts] [Search This Site] [Privacy Policy]
Document: tropical_cyclone_ophelia.htm Updated: 2 May 2017